createdAt,value
2022-11-18T00:00:03.454Z,99564.59
2022-11-18T00:02:31.485Z,99571.94
2022-11-18T00:04:59.474Z,99579.75
2022-11-18T00:07:28.262Z,99572.53
2022-11-18T00:09:56.422Z,99578.97
2022-11-18T00:12:41.606Z,99575.34
2022-11-18T00:15:11.195Z,99571.50
2022-11-18T00:17:39.127Z,99572.88
2022-11-18T00:20:07.912Z,99564.81
2022-11-18T00:22:35.874Z,99567.34
2022-11-18T00:25:03.900Z,99567.06
2022-11-18T00:27:32.144Z,99568.72
2022-11-18T00:30:00.089Z,99570.63
2022-11-18T00:32:29.394Z,99562.03
2022-11-18T00:34:57.338Z,99566.78
2022-11-18T00:37:25.339Z,99565.84
2022-11-18T00:39:53.250Z,99563.06
2022-11-18T00:42:50.157Z,99563.50
2022-11-18T00:45:18.231Z,99567.31
2022-11-18T00:47:47.975Z,99567.41
2022-11-18T00:50:16.065Z,99570.19
2022-11-18T00:52:44.051Z,99569.47
2022-11-18T00:55:12.000Z,99566.94
2022-11-18T00:57:39.926Z,99567.50
2022-11-18T01:00:09.493Z,99567.50
2022-11-18T01:02:37.818Z,99558.06
2022-11-18T01:05:07.685Z,99555.38
2022-11-18T01:07:35.717Z,99559.22
2022-11-18T01:10:03.705Z,99548.31
2022-11-18T01:12:48.961Z,99558.91
2022-11-18T01:15:19.509Z,99550.81
2022-11-18T01:17:47.430Z,99559.03
2022-11-18T01:20:17.257Z,99556.31
2022-11-18T01:22:45.211Z,99539.34
2022-11-18T01:25:13.368Z,99536.97
2022-11-18T01:27:41.428Z,99530.22
2022-11-18T01:30:10.397Z,99543.16
2022-11-18T01:32:38.356Z,99540.56
2022-11-18T01:35:07.052Z,99547.31
2022-11-18T01:37:36.398Z,99547.31
2022-11-18T01:40:05.500Z,99544.81
2022-11-18T01:42:33.478Z,99548.66
2022-11-18T01:45:10.014Z,99548.09
2022-11-18T01:47:42.854Z,99549.34
2022-11-18T01:50:11.884Z,99537.63
2022-11-18T01:52:43.606Z,99543.72
2022-11-18T01:55:17.899Z,99539.06
2022-11-18T01:57:48.921Z,99550.25
2022-11-18T02:00:17.325Z,99538.44
2022-11-18T02:02:46.097Z,99550.09
2022-11-18T02:05:14.767Z,99541.09
2022-11-18T02:07:45.132Z,99538.78
2022-11-18T02:10:20.313Z,99542.59
2022-11-18T02:12:49.091Z,99541.31
2022-11-18T02:15:17.698Z,99549.06
2022-11-18T02:17:54.607Z,99547.44
2022-11-18T02:20:32.370Z,99552.25
2022-11-18T02:23:47.985Z,99543.22
2022-11-18T02:26:36.390Z,99541.75
2022-11-18T02:29:10.020Z,99553.22
2022-11-18T02:31:47.701Z,99554.41
2022-11-18T02:34:23.111Z,99570.75
2022-11-18T02:36:56.516Z,99568.56
2022-11-18T02:39:36.623Z,99562.25
2022-11-18T02:42:07.939Z,99564.47
2022-11-18T02:44:39.546Z,99566.88
2022-11-18T02:47:12.042Z,99560.03
2022-11-18T02:49:43.424Z,99554.06
2022-11-18T02:52:13.490Z,99549.91
2022-11-18T02:54:43.815Z,99555.81
2022-11-18T02:57:13.069Z,99548.06
2022-11-18T02:59:42.398Z,99548.59
2022-11-18T03:02:16.313Z,99545.06
2022-11-18T03:04:45.331Z,99548.59
2022-11-18T03:07:19.481Z,99542.69
2022-11-18T03:09:48.867Z,99549.97
2022-11-18T03:12:25.791Z,99549.50
2022-11-18T03:15:04.267Z,99549.03
2022-11-18T03:17:40.302Z,99557.41
2022-11-18T03:20:16.403Z,99559.63
2022-11-18T03:22:49.396Z,99557.78
2022-11-18T03:25:24.728Z,99565.22
2022-11-18T03:27:58.717Z,99557.47
2022-11-18T03:30:30.861Z,99557.19
2022-11-18T03:33:03.942Z,99559.06
2022-11-18T03:35:36.804Z,99552.63
2022-11-18T03:38:10.092Z,99554.91
2022-11-18T03:40:43.107Z,99540.72
2022-11-18T03:43:14.506Z,99558.16
2022-11-18T03:45:47.365Z,99563.66
2022-11-18T03:48:17.801Z,99553.41
2022-11-18T03:50:49.641Z,99559.94
2022-11-18T03:53:20.037Z,99555.69
2022-11-18T03:55:52.394Z,99559.94
2022-11-18T03:58:26.005Z,99547.50
2022-11-18T04:01:00.657Z,99556.88
2022-11-18T04:03:28.941Z,99549.78
2022-11-18T04:06:04.746Z,99557.13
2022-11-18T04:08:40.509Z,99555.41
2022-11-18T04:11:34.302Z,99554.28
2022-11-18T04:14:02.945Z,99550.69
2022-11-18T04:16:32.374Z,99551.94
2022-11-18T04:19:05.729Z,99549.50
2022-11-18T04:21:34.253Z,99552.53
2022-11-18T04:24:02.673Z,99557.88
2022-11-18T04:26:31.638Z,99552.13
2022-11-18T04:28:59.853Z,99564.78
2022-11-18T04:31:27.851Z,99556.59
2022-11-18T04:33:57.152Z,99552.81
2022-11-18T04:36:25.110Z,99567.97
2022-11-18T04:38:53.969Z,99558.13
2022-11-18T04:41:41.878Z,99550.78
2022-11-18T04:44:13.396Z,99565.69
2022-11-18T04:46:42.953Z,99564.22
2022-11-18T04:49:13.956Z,99567.97
2022-11-18T04:51:42.807Z,99583.72
2022-11-18T04:54:11.363Z,99579.78
2022-11-18T04:56:44.114Z,99581.38
2022-11-18T04:59:16.784Z,99588.53
2022-11-18T05:01:45.168Z,99590.78
2022-11-18T05:04:16.138Z,99587.00
2022-11-18T05:06:44.380Z,99576.66
2022-11-18T05:09:12.757Z,99579.31
2022-11-18T05:11:58.128Z,99586.38
2022-11-18T05:14:26.863Z,99589.41
2022-11-18T05:16:55.449Z,99591.88
2022-11-18T05:19:24.993Z,99587.22
2022-11-18T05:21:53.076Z,99582.44
2022-11-18T05:24:21.314Z,99577.25
2022-11-18T05:26:49.240Z,99582.84
2022-11-18T05:29:19.378Z,99589.22
2022-11-18T05:31:48.357Z,99592.09
2022-11-18T05:34:16.813Z,99599.97
2022-11-18T05:36:46.245Z,99591.47
2022-11-18T05:39:14.363Z,99580.97
2022-11-18T05:41:59.668Z,99592.78
2022-11-18T05:44:27.638Z,99584.16
2022-11-18T05:46:56.721Z,99593.47
2022-11-18T05:49:24.850Z,99589.13
2022-11-18T05:51:54.149Z,99593.56
2022-11-18T05:54:22.960Z,99589.97
2022-11-18T05:56:51.449Z,99589.31
2022-11-18T05:59:19.619Z,99590.56
2022-11-18T06:01:51.757Z,99574.50
2022-11-18T06:04:27.019Z,99579.56
2022-11-18T06:07:00.740Z,99586.44
2022-11-18T06:09:33.540Z,99586.69
2022-11-18T06:12:03.895Z,99590.88
2022-11-18T06:14:38.102Z,99597.34
2022-11-18T06:17:09.492Z,99600.88
2022-11-18T06:19:37.558Z,99605.97
2022-11-18T06:22:08.615Z,99610.53
2022-11-18T06:24:37.253Z,99615.81
2022-11-18T06:27:05.577Z,99610.84
2022-11-18T06:29:33.494Z,99609.53
2022-11-18T06:32:01.432Z,99604.66
2022-11-18T06:34:29.363Z,99605.91
2022-11-18T06:36:58.474Z,99602.31
2022-11-18T06:39:28.211Z,99599.63
2022-11-18T06:41:56.152Z,99592.41
2022-11-18T06:44:23.091Z,99593.94
2022-11-18T06:46:56.751Z,99591.84
2022-11-18T06:49:25.099Z,99593.78
2022-11-18T06:51:53.116Z,99588.47
2022-11-18T06:54:21.554Z,99593.09
2022-11-18T06:56:50.854Z,99583.16
2022-11-18T06:59:23.953Z,99576.88
2022-11-18T07:01:53.608Z,99563.94
2022-11-18T07:04:22.056Z,99582.09
2022-11-18T07:06:50.233Z,99580.06
2022-11-18T07:09:18.638Z,99582.81
2022-11-18T07:11:46.853Z,99584.81
2022-11-18T07:14:16.155Z,99577.66
2022-11-18T07:16:44.118Z,99583.97
2022-11-18T07:19:13.670Z,99578.78
2022-11-18T07:21:43.508Z,99592.22
2022-11-18T07:24:15.247Z,99587.50
2022-11-18T07:26:43.860Z,99595.75
2022-11-18T07:29:12.428Z,99597.41
2022-11-18T07:31:41.916Z,99589.59
2022-11-18T07:34:09.899Z,99590.50
2022-11-18T07:36:37.850Z,99598.84
2022-11-18T07:39:07.921Z,99589.91
2022-11-18T07:41:36.428Z,99601.00
2022-11-18T07:44:06.564Z,99593.38
2022-11-18T07:46:35.676Z,99608.16
2022-11-18T07:49:07.109Z,99598.47
2022-11-18T07:51:37.143Z,99598.38
2022-11-18T07:54:08.229Z,99587.84
2022-11-18T07:56:36.162Z,99597.94
2022-11-18T07:59:04.733Z,99592.38
2022-11-18T08:01:33.359Z,99594.25
2022-11-18T08:04:08.214Z,99588.72
2022-11-18T08:06:37.158Z,99591.44
2022-11-18T08:09:06.101Z,99591.31
2022-11-18T08:11:34.420Z,99586.53
2022-11-18T08:14:02.649Z,99585.13
2022-11-18T08:16:31.011Z,99583.44
2022-11-18T08:19:00.994Z,99575.81
2022-11-18T08:21:30.420Z,99574.00
2022-11-18T08:23:59.476Z,99576.66
2022-11-18T08:26:28.540Z,99567.63
2022-11-18T08:28:56.650Z,99571.47
2022-11-18T08:31:26.409Z,99578.31
2022-11-18T08:33:57.067Z,99564.06
2022-11-18T08:36:26.863Z,99566.25
2022-11-18T08:38:56.661Z,99563.97
2022-11-18T08:41:30.634Z,99563.00
2022-11-18T08:43:59.012Z,99561.28
2022-11-18T08:46:26.970Z,99558.84
2022-11-18T08:48:54.903Z,99561.13
2022-11-18T08:51:22.894Z,99553.06
2022-11-18T08:53:50.941Z,99551.34
2022-11-18T08:56:22.177Z,99533.88
2022-11-18T08:58:50.501Z,99536.63
2022-11-18T09:01:18.937Z,99534.78
2022-11-18T09:03:48.535Z,99536.69
2022-11-18T09:06:18.414Z,99535.03
2022-11-18T09:08:46.856Z,99531.47
2022-11-18T09:11:16.740Z,99538.34
2022-11-18T09:16:35.697Z,99543.19
2022-11-18T09:19:24.839Z,99548.25
2022-11-18T09:21:53.178Z,99539.34
2022-11-18T09:24:21.447Z,99529.56
2022-11-18T09:26:50.038Z,99541.94
2022-11-18T09:29:20.075Z,99530.69
2022-11-18T09:31:47.991Z,99512.78
2022-11-18T09:34:16.188Z,99505.53
2022-11-18T09:36:44.344Z,99508.13
2022-11-18T09:39:12.307Z,99501.81
2022-11-18T09:41:46.252Z,99491.91
2022-11-18T09:44:42.594Z,99476.75
2022-11-18T09:47:21.839Z,99474.81
2022-11-18T09:49:50.821Z,99460.63
2022-11-18T09:52:22.122Z,99452.47
2022-11-18T09:54:50.362Z,99447.72
2022-11-18T09:57:21.417Z,99432.88
2022-11-18T09:59:50.965Z,99435.63
2022-11-18T10:02:35.430Z,99429.38
2022-11-18T10:05:15.647Z,99423.38
2022-11-18T10:07:50.823Z,99426.22
2022-11-18T10:10:23.921Z,99415.50
2022-11-18T10:12:57.303Z,99424.19
2022-11-18T10:15:35.105Z,99412.75
2022-11-18T10:18:38.024Z,99409.47
2022-11-18T10:21:18.845Z,99396.38
2022-11-18T10:23:53.777Z,99383.59
2022-11-18T10:26:38.470Z,99388.25
2022-11-18T10:29:10.056Z,99381.06
2022-11-18T10:31:40.511Z,99372.16
2022-11-18T10:34:12.156Z,99361.56
2022-11-18T10:36:40.077Z,99364.41
2022-11-18T10:39:14.322Z,99359.59
2022-11-18T10:41:49.030Z,99364.19
2022-11-18T10:44:35.245Z,99354.63
2022-11-18T10:47:27.814Z,99358.75
2022-11-18T10:49:57.317Z,99353.19
2022-11-18T10:52:25.897Z,99350.69
2022-11-18T10:55:09.897Z,99359.09
2022-11-18T10:57:43.468Z,99353.19
2022-11-18T11:00:43.476Z,99348.69
2022-11-18T11:03:25.651Z,99331.44
2022-11-18T11:06:31.741Z,99341.28
2022-11-18T11:09:03.122Z,99330.38
2022-11-18T11:11:33.131Z,99336.28
2022-11-18T11:14:23.132Z,99325.00
2022-11-18T11:17:03.606Z,99318.84
2022-11-18T11:19:42.427Z,99316.34
2022-11-18T11:22:13.012Z,99313.44
2022-11-18T11:24:41.808Z,99308.22
2022-11-18T11:30:22.085Z,99299.34
2022-11-18T11:33:23.765Z,99297.25
2022-11-18T11:36:07.073Z,99292.47
2022-11-18T11:38:44.577Z,99293.13
2022-11-18T11:41:21.718Z,99294.13
2022-11-18T11:44:05.336Z,99293.31
2022-11-18T11:46:43.633Z,99268.56
2022-11-18T11:49:19.755Z,99287.75
2022-11-18T11:51:55.739Z,99285.63
2022-11-18T11:54:41.699Z,99289.75
2022-11-18T11:57:24.547Z,99288.41
2022-11-18T12:00:02.633Z,99291.72
2022-11-18T12:02:51.450Z,99264.47
2022-11-18T12:05:26.584Z,99286.56
2022-11-18T12:07:59.276Z,99280.19
2022-11-18T12:10:31.718Z,99267.22
2022-11-18T12:13:21.143Z,99275.75
2022-11-18T12:16:00.024Z,99273.06
2022-11-18T12:18:35.521Z,99272.31
2022-11-18T12:21:03.466Z,99278.84
2022-11-18T12:23:33.826Z,99271.66
2022-11-18T12:26:10.557Z,99258.72
2022-11-18T12:28:41.373Z,99251.00
2022-11-18T12:31:37.956Z,99252.66
2022-11-18T12:34:32.440Z,99236.59
2022-11-18T12:37:23.921Z,99268.72
2022-11-18T12:40:01.007Z,99252.63
2022-11-18T12:42:58.855Z,99256.25
2022-11-18T12:45:50.652Z,99253.31
2022-11-18T12:48:41.308Z,99245.59
2022-11-18T12:51:42.601Z,99254.47
2022-11-18T12:54:38.813Z,99256.91
2022-11-18T12:57:18.757Z,99247.59
2022-11-18T12:59:46.943Z,99254.34
2022-11-18T13:02:25.125Z,99239.91
2022-11-18T13:05:07.896Z,99232.53
2022-11-18T13:07:59.780Z,99230.41
2022-11-18T13:10:30.662Z,99220.25
2022-11-18T13:13:00.813Z,99226.97
2022-11-18T13:15:46.517Z,99218.28
2022-11-18T13:18:17.165Z,99225.16
2022-11-18T13:20:55.027Z,99220.22
2022-11-18T13:23:46.454Z,99219.75
2022-11-18T13:26:19.872Z,99222.16
2022-11-18T13:29:03.510Z,99215.63
2022-11-18T13:31:39.693Z,99225.44
2022-11-18T13:34:17.825Z,99216.22
2022-11-18T13:36:48.075Z,99215.88
2022-11-18T13:39:23.184Z,99216.19
2022-11-18T13:42:01.137Z,99223.81
2022-11-18T13:44:32.705Z,99217.13
2022-11-18T13:47:10.485Z,99206.31
2022-11-18T13:49:53.637Z,99201.63
2022-11-18T13:52:27.385Z,99184.72
2022-11-18T13:54:57.385Z,99190.13
2022-11-18T13:57:27.022Z,99201.31
2022-11-18T13:59:56.955Z,99215.84
2022-11-18T14:02:25.260Z,99202.56
2022-11-18T14:04:57.097Z,99208.19
2022-11-18T14:07:33.468Z,99211.28
2022-11-18T14:10:03.543Z,99198.06
2022-11-18T14:12:33.432Z,99207.69
2022-11-18T14:15:17.181Z,99207.09
2022-11-18T14:17:54.168Z,99200.66
2022-11-18T14:20:22.674Z,99198.88
2022-11-18T14:22:55.784Z,99199.09
2022-11-18T14:25:28.226Z,99186.38
2022-11-18T14:27:57.844Z,99191.91
2022-11-18T14:30:37.647Z,99183.63
2022-11-18T14:33:18.229Z,99188.63
2022-11-18T14:35:51.024Z,99182.59
2022-11-18T14:41:10.955Z,99184.03
2022-11-18T14:43:39.126Z,99168.97
2022-11-18T14:46:15.323Z,99163.25
2022-11-18T14:48:43.696Z,99167.56
2022-11-18T14:51:14.723Z,99143.09
2022-11-18T14:53:42.690Z,99148.13
2022-11-18T14:56:16.466Z,99152.28
2022-11-18T14:58:44.383Z,99151.47
2022-11-18T15:01:14.749Z,99147.84
2022-11-18T15:03:42.786Z,99144.91
2022-11-18T15:06:15.893Z,99140.28
2022-11-18T15:08:44.165Z,99145.59
2022-11-18T15:11:12.467Z,99133.59
2022-11-18T15:13:40.781Z,99140.75
2022-11-18T15:16:17.173Z,99129.09
2022-11-18T15:18:46.769Z,99149.25
2022-11-18T15:21:15.196Z,99132.63
2022-11-18T15:23:43.773Z,99140.66
2022-11-18T15:26:19.723Z,99131.34
2022-11-18T15:28:48.196Z,99125.22
2022-11-18T15:31:18.272Z,99116.94
2022-11-18T15:33:46.952Z,99117.06
2022-11-18T15:36:16.925Z,99102.75
2022-11-18T15:38:45.222Z,99109.84
2022-11-18T15:41:17.655Z,99114.72
2022-11-18T15:43:46.202Z,99116.19
2022-11-18T15:46:14.493Z,99113.44
2022-11-18T15:48:43.930Z,99121.53
2022-11-18T15:51:12.634Z,99125.16
2022-11-18T15:53:40.933Z,99123.66
2022-11-18T15:56:27.264Z,99109.41
2022-11-18T15:58:57.400Z,99112.88
2022-11-18T16:01:26.128Z,99114.22
2022-11-18T16:03:55.842Z,99111.63
2022-11-18T16:06:23.806Z,99102.84
2022-11-18T16:08:57.506Z,99099.88
2022-11-18T16:11:45.030Z,99112.91
2022-11-18T16:14:14.784Z,99110.81
2022-11-18T16:16:44.221Z,99113.00
2022-11-18T16:19:15.788Z,99111.78
2022-11-18T16:21:46.448Z,99107.84
2022-11-18T16:24:17.360Z,99108.56
2022-11-18T16:26:45.505Z,99101.06
2022-11-18T16:29:15.965Z,99097.03
2022-11-18T16:31:44.764Z,99072.81
2022-11-18T16:34:17.340Z,99095.09
2022-11-18T16:36:46.593Z,99088.13
2022-11-18T16:39:16.602Z,99093.97
2022-11-18T16:41:45.990Z,99086.31
2022-11-18T16:44:15.732Z,99089.31
2022-11-18T16:46:46.552Z,99090.41
2022-11-18T16:49:18.039Z,99081.63
2022-11-18T16:51:47.860Z,99080.84
2022-11-18T16:54:19.320Z,99086.34
2022-11-18T16:56:48.217Z,99082.53
2022-11-18T16:59:18.042Z,99066.97
2022-11-18T17:01:46.477Z,99084.50
2022-11-18T17:04:15.931Z,99081.97
2022-11-18T17:06:44.028Z,99080.06
2022-11-18T17:09:15.523Z,99078.13
2022-11-18T17:11:43.552Z,99075.66
2022-11-18T17:14:12.438Z,99061.44
2022-11-18T17:16:40.897Z,99073.28
2022-11-18T17:19:17.336Z,99052.44
2022-11-18T17:21:47.181Z,99048.47
2022-11-18T17:24:16.978Z,99039.81
2022-11-18T17:26:45.819Z,99039.97
2022-11-18T17:29:14.628Z,99032.41
2022-11-18T17:31:43.640Z,99017.34
2022-11-18T17:34:13.105Z,99020.41
2022-11-18T17:36:41.475Z,99023.16
2022-11-18T17:39:12.516Z,99019.03
2022-11-18T17:41:58.439Z,99016.69
2022-11-18T17:44:26.493Z,99014.22
2022-11-18T17:46:54.406Z,99009.09
2022-11-18T17:49:22.505Z,99010.28
2022-11-18T17:51:51.350Z,99012.31
2022-11-18T17:54:21.536Z,99017.78
2022-11-18T17:56:52.344Z,99019.84
2022-11-18T17:59:20.964Z,99025.06
2022-11-18T18:01:52.870Z,99029.13
2022-11-18T18:04:23.939Z,99025.56
2022-11-18T18:06:53.093Z,99017.66
2022-11-18T18:09:29.920Z,99027.66
2022-11-18T18:11:59.700Z,99034.13
2022-11-18T18:14:26.641Z,99031.63
2022-11-18T18:16:55.206Z,99015.41
2022-11-18T18:19:24.737Z,99031.16
2022-11-18T18:21:53.534Z,99025.78
2022-11-18T18:24:23.398Z,99030.88
2022-11-18T18:26:51.449Z,99029.78
2022-11-18T18:29:19.370Z,99032.25
2022-11-18T18:31:47.294Z,99052.84
2022-11-18T18:34:15.248Z,99047.22
2022-11-18T18:36:43.167Z,99052.31
2022-11-18T18:39:11.155Z,99054.09
2022-11-18T18:41:40.440Z,99068.88
2022-11-18T18:44:10.428Z,99066.25
2022-11-18T18:46:40.716Z,99065.03
2022-11-18T18:49:10.560Z,99061.16
2022-11-18T18:51:40.083Z,99025.56
2022-11-18T18:54:11.060Z,99054.88
2022-11-18T18:56:40.781Z,99056.28
2022-11-18T18:59:09.469Z,99074.13
2022-11-18T19:01:38.038Z,99075.44
2022-11-18T19:04:08.463Z,99073.25
2022-11-18T19:09:26.268Z,99088.16
2022-11-18T19:12:13.770Z,99100.22
2022-11-18T19:14:41.864Z,99101.03
2022-11-18T19:17:11.626Z,99129.16
2022-11-18T19:19:58.301Z,99151.41
2022-11-18T19:22:26.291Z,99138.38
2022-11-18T19:24:54.810Z,99127.84
2022-11-18T19:27:24.388Z,99130.72
2022-11-18T19:29:52.462Z,99151.94
2022-11-18T19:32:20.387Z,99162.34
2022-11-18T19:34:48.313Z,99148.94
2022-11-18T19:37:16.261Z,99148.38
2022-11-18T19:39:44.211Z,99147.81
2022-11-18T19:42:12.135Z,99159.75
2022-11-18T19:44:41.462Z,99156.34
2022-11-18T19:47:09.393Z,99152.78
2022-11-18T19:49:37.330Z,99162.88
2022-11-18T19:52:05.305Z,99161.94
2022-11-18T19:54:33.232Z,99159.63
2022-11-18T19:57:03.900Z,99158.78
2022-11-18T19:59:31.926Z,99157.69
2022-11-18T20:02:01.345Z,99159.88
2022-11-18T20:04:29.535Z,99157.13
2022-11-18T20:06:58.015Z,99157.16
2022-11-18T20:09:26.554Z,99146.59
2022-11-18T20:11:55.605Z,99149.75
2022-11-18T20:14:23.717Z,99132.06
2022-11-18T20:16:52.713Z,99126.47
2022-11-18T20:19:22.177Z,99137.00
2022-11-18T20:21:50.409Z,99127.00
2022-11-18T20:24:19.829Z,99137.13
2022-11-18T20:26:48.760Z,99125.38
2022-11-18T20:29:17.175Z,99128.50
2022-11-18T20:31:45.731Z,99116.88
2022-11-18T20:34:14.520Z,99117.97
2022-11-18T20:36:44.587Z,99116.03
2022-11-18T20:39:15.057Z,99103.84
2022-11-18T20:41:43.383Z,99113.56
2022-11-18T20:44:12.215Z,99111.94
2022-11-18T20:46:40.119Z,99116.59
2022-11-18T20:49:08.044Z,99122.22
2022-11-18T20:51:35.959Z,99127.69
2022-11-18T20:54:09.243Z,99145.91
2022-11-18T20:56:37.244Z,99150.03
2022-11-18T20:59:05.162Z,99152.09
2022-11-18T21:01:34.042Z,99148.94
2022-11-18T21:04:03.674Z,99143.44
2022-11-18T21:06:33.382Z,99145.94
2022-11-18T21:09:02.856Z,99141.25
2022-11-18T21:11:34.981Z,99131.53
2022-11-18T21:14:24.731Z,99141.53
2022-11-18T21:16:55.286Z,99136.59
2022-11-18T21:19:23.621Z,99143.16
2022-11-18T21:21:52.704Z,99146.06
2022-11-18T21:24:23.756Z,99146.47
2022-11-18T21:26:54.883Z,99143.59
2022-11-18T21:29:23.928Z,99138.25
2022-11-18T21:31:52.254Z,99127.69
2022-11-18T21:34:21.053Z,99138.78
2022-11-18T21:36:54.358Z,99124.28
2022-11-18T21:39:23.571Z,99138.13
2022-11-18T21:41:56.806Z,99141.66
2022-11-18T21:44:28.187Z,99147.00
2022-11-18T21:46:56.925Z,99154.56
2022-11-18T21:49:24.841Z,99157.00
2022-11-18T21:51:52.742Z,99168.53
2022-11-18T21:54:20.681Z,99177.16
2022-11-18T21:56:48.622Z,99180.72
2022-11-18T21:59:18.294Z,99176.03
2022-11-18T22:01:46.522Z,99179.91
2022-11-18T22:04:34.510Z,99190.06
2022-11-18T22:07:02.770Z,99201.13
2022-11-18T22:09:36.087Z,99201.00
2022-11-18T22:12:05.025Z,99208.53
2022-11-18T22:14:34.364Z,99200.59
2022-11-18T22:17:02.356Z,99210.88
2022-11-18T22:19:30.412Z,99223.09
2022-11-18T22:21:58.329Z,99225.81
2022-11-18T22:24:26.317Z,99227.03
2022-11-18T22:26:54.218Z,99216.78
2022-11-18T22:29:24.186Z,99217.19
2022-11-18T22:31:54.122Z,99207.03
2022-11-18T22:34:22.071Z,99216.34
2022-11-18T22:36:50.029Z,99229.50
2022-11-18T22:39:18.249Z,99233.06
2022-11-18T22:42:03.674Z,99244.88
2022-11-18T22:44:31.918Z,99239.41
2022-11-18T22:47:01.252Z,99248.84
2022-11-18T22:49:29.201Z,99252.44
2022-11-18T22:51:57.182Z,99259.97
2022-11-18T22:54:41.195Z,99260.25
2022-11-18T22:57:09.444Z,99269.28
2022-11-18T22:59:37.362Z,99277.25
2022-11-18T23:02:06.895Z,99279.44
2022-11-18T23:04:35.228Z,99268.22
2022-11-18T23:07:03.379Z,99275.59
2022-11-18T23:09:31.515Z,99273.94
2022-11-18T23:12:16.744Z,99281.22
2022-11-18T23:14:44.680Z,99286.00
2022-11-18T23:17:13.988Z,99295.34
2022-11-18T23:19:43.911Z,99293.56
2022-11-18T23:22:12.336Z,99302.59
2022-11-18T23:24:40.396Z,99287.09
2022-11-18T23:27:08.576Z,99292.84
2022-11-18T23:29:37.272Z,99285.28
2022-11-18T23:32:05.764Z,99292.03
2022-11-18T23:34:35.072Z,99296.44
2022-11-18T23:37:03.030Z,99289.31
2022-11-18T23:39:30.966Z,99299.19
2022-11-18T23:41:59.083Z,99306.34
2022-11-18T23:44:40.847Z,99313.47
2022-11-18T23:47:08.781Z,99315.25
2022-11-18T23:49:38.146Z,99317.84
2022-11-18T23:52:06.650Z,99311.19
2022-11-18T23:54:34.546Z,99330.97
2022-11-18T23:57:04.552Z,99334.94
2022-11-18T23:59:33.058Z,99324.84
